sensor_id;sensor_type;location;lat;lon;timestamp;pressure;altitude;pressure_sealevel;temperature;humidity
66887;BME280;53798;51.680;5.976;2022-08-19T00:02:08;101227.16;;;18.18;81.28
66887;BME280;53798;51.680;5.976;2022-08-19T00:04:35;101230.84;;;18.15;81.73
66887;BME280;53798;51.680;5.976;2022-08-19T00:07:05;101225.78;;;18.11;81.50
66887;BME280;53798;51.680;5.976;2022-08-19T00:09:33;101215.28;;;18.08;81.57
66887;BME280;53798;51.680;5.976;2022-08-19T00:12:00;101219.06;;;18.04;81.51
66887;BME280;53798;51.680;5.976;2022-08-19T00:14:29;101218.41;;;18.00;81.79
66887;BME280;53798;51.680;5.976;2022-08-19T00:16:59;101223.88;;;17.97;81.87
66887;BME280;53798;51.680;5.976;2022-08-19T00:19:27;101219.63;;;17.93;81.81
66887;BME280;53798;51.680;5.976;2022-08-19T00:21:54;101212.75;;;17.89;82.02
66887;BME280;53798;51.680;5.976;2022-08-19T00:24:23;101208.44;;;17.86;82.01
66887;BME280;53798;51.680;5.976;2022-08-19T00:26:51;101211.34;;;17.81;82.09
66887;BME280;53798;51.680;5.976;2022-08-19T00:29:23;101208.00;;;17.78;82.08
66887;BME280;53798;51.680;5.976;2022-08-19T00:31:52;101209.03;;;17.75;82.20
66887;BME280;53798;51.680;5.976;2022-08-19T00:34:25;101210.91;;;17.73;82.35
66887;BME280;53798;51.680;5.976;2022-08-19T00:36:56;101212.91;;;17.69;82.82
66887;BME280;53798;51.680;5.976;2022-08-19T00:39:23;101214.72;;;17.69;82.61
66887;BME280;53798;51.680;5.976;2022-08-19T00:41:51;101223.66;;;17.68;82.55
66887;BME280;53798;51.680;5.976;2022-08-19T00:44:23;101226.38;;;17.66;82.33
66887;BME280;53798;51.680;5.976;2022-08-19T00:46:55;101220.28;;;17.64;82.35
66887;BME280;53798;51.680;5.976;2022-08-19T00:49:35;101223.03;;;17.63;82.34
66887;BME280;53798;51.680;5.976;2022-08-19T00:52:15;101221.31;;;17.62;82.15
66887;BME280;53798;51.680;5.976;2022-08-19T00:54:48;101210.72;;;17.60;82.53
66887;BME280;53798;51.680;5.976;2022-08-19T00:57:24;101218.88;;;17.57;82.43
66887;BME280;53798;51.680;5.976;2022-08-19T00:59:57;101215.44;;;17.55;82.52
66887;BME280;53798;51.680;5.976;2022-08-19T01:02:30;101228.06;;;17.51;82.36
66887;BME280;53798;51.680;5.976;2022-08-19T01:05:00;101218.44;;;17.49;82.66
66887;BME280;53798;51.680;5.976;2022-08-19T01:07:30;101227.47;;;17.46;82.62
66887;BME280;53798;51.680;5.976;2022-08-19T01:10:07;101226.69;;;17.44;82.52
66887;BME280;53798;51.680;5.976;2022-08-19T01:12:38;101224.97;;;17.43;82.40
66887;BME280;53798;51.680;5.976;2022-08-19T01:15:09;101224.16;;;17.41;82.81
66887;BME280;53798;51.680;5.976;2022-08-19T01:17:39;101220.75;;;17.39;82.89
66887;BME280;53798;51.680;5.976;2022-08-19T01:20:12;101224.34;;;17.38;82.78
66887;BME280;53798;51.680;5.976;2022-08-19T01:22:51;101221.75;;;17.36;83.14
66887;BME280;53798;51.680;5.976;2022-08-19T01:25:25;101220.91;;;17.36;83.03
66887;BME280;53798;51.680;5.976;2022-08-19T01:27:56;101225.34;;;17.35;83.22
66887;BME280;53798;51.680;5.976;2022-08-19T01:30:37;101221.94;;;17.33;83.18
66887;BME280;53798;51.680;5.976;2022-08-19T01:33:04;101221.94;;;17.33;83.13
66887;BME280;53798;51.680;5.976;2022-08-19T01:35:32;101228.19;;;17.32;83.14
66887;BME280;53798;51.680;5.976;2022-08-19T01:38:04;101226.53;;;17.30;83.14
66887;BME280;53798;51.680;5.976;2022-08-19T01:40:37;101230.22;;;17.27;83.19
66887;BME280;53798;51.680;5.976;2022-08-19T01:43:06;101228.50;;;17.26;83.57
66887;BME280;53798;51.680;5.976;2022-08-19T01:45:35;101238.22;;;17.27;83.29
66887;BME280;53798;51.680;5.976;2022-08-19T01:48:03;101232.75;;;17.30;83.45
66887;BME280;53798;51.680;5.976;2022-08-19T01:50:33;101231.66;;;17.34;83.32
66887;BME280;53798;51.680;5.976;2022-08-19T01:53:05;101221.69;;;17.38;83.85
66887;BME280;53798;51.680;5.976;2022-08-19T01:55:37;101227.72;;;17.42;83.76
66887;BME280;53798;51.680;5.976;2022-08-19T01:58:18;101224.72;;;17.48;84.00
66887;BME280;53798;51.680;5.976;2022-08-19T02:00:49;101234.97;;;17.56;84.12
66887;BME280;53798;51.680;5.976;2022-08-19T02:03:17;101241.88;;;17.60;84.18
66887;BME280;53798;51.680;5.976;2022-08-19T02:05:44;101237.28;;;17.62;84.40
66887;BME280;53798;51.680;5.976;2022-08-19T02:08:12;101244.28;;;17.64;84.29
66887;BME280;53798;51.680;5.976;2022-08-19T02:10:42;101247.81;;;17.65;84.58
66887;BME280;53798;51.680;5.976;2022-08-19T02:13:12;101257.28;;;17.70;84.57
66887;BME280;53798;51.680;5.976;2022-08-19T02:15:40;101256.25;;;17.73;84.52
66887;BME280;53798;51.680;5.976;2022-08-19T02:18:07;101259.78;;;17.74;84.27
66887;BME280;53798;51.680;5.976;2022-08-19T02:20:36;101256.25;;;17.73;84.10
66887;BME280;53798;51.680;5.976;2022-08-19T02:23:06;101249.13;;;17.74;84.21
66887;BME280;53798;51.680;5.976;2022-08-19T02:25:43;101242.91;;;17.73;84.07
66887;BME280;53798;51.680;5.976;2022-08-19T02:28:12;101239.56;;;17.69;83.91
66887;BME280;53798;51.680;5.976;2022-08-19T02:30:45;101234.47;;;17.65;83.93
66887;BME280;53798;51.680;5.976;2022-08-19T02:33:13;101236.44;;;17.61;83.67
66887;BME280;53798;51.680;5.976;2022-08-19T02:35:45;101239.28;;;17.58;83.63
66887;BME280;53798;51.680;5.976;2022-08-19T02:38:14;101237.78;;;17.52;83.63
66887;BME280;53798;51.680;5.976;2022-08-19T02:40:59;101243.13;;;17.52;83.95
66887;BME280;53798;51.680;5.976;2022-08-19T02:43:28;101245.09;;;17.49;83.74
66887;BME280;53798;51.680;5.976;2022-08-19T02:46:01;101247.91;;;17.46;83.87
66887;BME280;53798;51.680;5.976;2022-08-19T02:48:29;101251.53;;;17.45;84.12
66887;BME280;53798;51.680;5.976;2022-08-19T02:50:57;101248.09;;;17.43;84.27
66887;BME280;53798;51.680;5.976;2022-08-19T02:53:26;101249.03;;;17.42;84.35
66887;BME280;53798;51.680;5.976;2022-08-19T02:55:55;101250.06;;;17.39;84.40
66887;BME280;53798;51.680;5.976;2022-08-19T02:58:22;101247.47;;;17.37;84.61
66887;BME280;53798;51.680;5.976;2022-08-19T03:00:53;101249.97;;;17.41;85.13
66887;BME280;53798;51.680;5.976;2022-08-19T03:03:22;101246.38;;;17.42;85.50
66887;BME280;53798;51.680;5.976;2022-08-19T03:05:50;101243.56;;;17.45;86.20
66887;BME280;53798;51.680;5.976;2022-08-19T03:08:23;101240.78;;;17.46;86.64
66887;BME280;53798;51.680;5.976;2022-08-19T03:10:52;101235.47;;;17.46;87.25
66887;BME280;53798;51.680;5.976;2022-08-19T03:13:20;101244.41;;;17.45;87.15
66887;BME280;53798;51.680;5.976;2022-08-19T03:15:47;101238.44;;;17.40;86.89
66887;BME280;53798;51.680;5.976;2022-08-19T03:18:16;101243.16;;;17.35;86.98
66887;BME280;53798;51.680;5.976;2022-08-19T03:20:47;101244.34;;;17.29;87.30
66887;BME280;53798;51.680;5.976;2022-08-19T03:23:16;101253.59;;;17.22;87.34
66887;BME280;53798;51.680;5.976;2022-08-19T03:25:48;101253.06;;;17.15;87.09
66887;BME280;53798;51.680;5.976;2022-08-19T03:28:37;101257.44;;;17.16;87.38
66887;BME280;53798;51.680;5.976;2022-08-19T03:31:08;101252.25;;;17.13;87.62
66887;BME280;53798;51.680;5.976;2022-08-19T03:33:59;101257.91;;;17.07;87.71
66887;BME280;53798;51.680;5.976;2022-08-19T03:36:26;101252.81;;;17.02;87.75
66887;BME280;53798;51.680;5.976;2022-08-19T03:38:58;101263.47;;;17.02;88.49
66887;BME280;53798;51.680;5.976;2022-08-19T03:41:31;101260.16;;;16.97;88.49
66887;BME280;53798;51.680;5.976;2022-08-19T03:44:17;101263.97;;;16.91;88.94
66887;BME280;53798;51.680;5.976;2022-08-19T03:46:52;101255.19;;;16.89;88.52
66887;BME280;53798;51.680;5.976;2022-08-19T03:49:24;101253.56;;;16.87;88.53
66887;BME280;53798;51.680;5.976;2022-08-19T03:51:56;101263.34;;;16.86;88.33
66887;BME280;53798;51.680;5.976;2022-08-19T03:54:26;101260.59;;;16.88;88.40
66887;BME280;53798;51.680;5.976;2022-08-19T03:56:55;101251.78;;;16.87;88.39
66887;BME280;53798;51.680;5.976;2022-08-19T03:59:30;101251.81;;;16.86;88.42
66887;BME280;53798;51.680;5.976;2022-08-19T04:02:02;101252.00;;;16.83;88.21
66887;BME280;53798;51.680;5.976;2022-08-19T04:04:38;101257.31;;;16.83;88.47
66887;BME280;53798;51.680;5.976;2022-08-19T04:07:07;101247.66;;;16.80;88.48
66887;BME280;53798;51.680;5.976;2022-08-19T04:09:36;101250.34;;;16.80;88.34
66887;BME280;53798;51.680;5.976;2022-08-19T04:12:05;101252.06;;;16.81;88.48
66887;BME280;53798;51.680;5.976;2022-08-19T04:14:34;101253.16;;;16.77;88.55
66887;BME280;53798;51.680;5.976;2022-08-19T04:17:02;101246.97;;;16.76;88.70
66887;BME280;53798;51.680;5.976;2022-08-19T04:19:34;101252.38;;;16.75;88.69
66887;BME280;53798;51.680;5.976;2022-08-19T04:22:03;101246.34;;;16.71;88.77
66887;BME280;53798;51.680;5.976;2022-08-19T04:24:31;101237.56;;;16.69;88.75
66887;BME280;53798;51.680;5.976;2022-08-19T04:27:00;101234.03;;;16.69;88.69
66887;BME280;53798;51.680;5.976;2022-08-19T04:29:29;101237.56;;;16.69;88.84
66887;BME280;53798;51.680;5.976;2022-08-19T04:31:57;101235.00;;;16.68;89.40
66887;BME280;53798;51.680;5.976;2022-08-19T04:34:36;101231.53;;;16.66;89.49
66887;BME280;53798;51.680;5.976;2022-08-19T04:37:25;101229.91;;;16.63;89.84
66887;BME280;53798;51.680;5.976;2022-08-19T04:40:01;101234.44;;;16.61;89.62
66887;BME280;53798;51.680;5.976;2022-08-19T04:42:47;101231.78;;;16.61;89.63
66887;BME280;53798;51.680;5.976;2022-08-19T04:45:14;101229.03;;;16.63;89.61
66887;BME280;53798;51.680;5.976;2022-08-19T04:47:43;101237.81;;;16.65;89.30
66887;BME280;53798;51.680;5.976;2022-08-19T04:50:27;101243.91;;;16.67;89.12
66887;BME280;53798;51.680;5.976;2022-08-19T04:52:54;101250.88;;;16.69;89.03
66887;BME280;53798;51.680;5.976;2022-08-19T04:55:22;101252.47;;;16.73;89.13
66887;BME280;53798;51.680;5.976;2022-08-19T04:57:52;101254.81;;;16.80;89.17
66887;BME280;53798;51.680;5.976;2022-08-19T05:00:21;101248.41;;;16.84;89.17
66887;BME280;53798;51.680;5.976;2022-08-19T05:02:48;101247.28;;;16.88;89.20
66887;BME280;53798;51.680;5.976;2022-08-19T05:05:16;101255.88;;;16.95;88.95
66887;BME280;53798;51.680;5.976;2022-08-19T05:07:44;101246.72;;;17.00;88.89
66887;BME280;53798;51.680;5.976;2022-08-19T05:10:11;101257.81;;;17.08;88.91
66887;BME280;53798;51.680;5.976;2022-08-19T05:12:39;101259.16;;;17.17;88.78
66887;BME280;53798;51.680;5.976;2022-08-19T05:15:07;101256.28;;;17.22;88.49
66887;BME280;53798;51.680;5.976;2022-08-19T05:17:35;101260.31;;;17.29;88.20
66887;BME280;53798;51.680;5.976;2022-08-19T05:20:06;101267.38;;;17.30;88.25
66887;BME280;53798;51.680;5.976;2022-08-19T05:22:53;101266.44;;;17.31;88.06
66887;BME280;53798;51.680;5.976;2022-08-19T05:25:21;101274.28;;;17.34;88.21
66887;BME280;53798;51.680;5.976;2022-08-19T05:27:49;101267.59;;;17.43;87.74
66887;BME280;53798;51.680;5.976;2022-08-19T05:30:16;101267.66;;;17.59;87.43
66887;BME280;53798;51.680;5.976;2022-08-19T05:32:44;101271.03;;;17.96;86.34
66887;BME280;53798;51.680;5.976;2022-08-19T05:35:11;101268.22;;;18.47;84.88
66887;BME280;53798;51.680;5.976;2022-08-19T05:37:39;101273.69;;;19.37;82.27
66887;BME280;53798;51.680;5.976;2022-08-19T05:40:08;101256.06;;;20.07;79.59
66887;BME280;53798;51.680;5.976;2022-08-19T05:42:37;101258.38;;;20.68;75.95
66887;BME280;53798;51.680;5.976;2022-08-19T05:45:05;101265.81;;;21.18;73.40
66887;BME280;53798;51.680;5.976;2022-08-19T05:47:32;101253.66;;;21.12;73.30
66887;BME280;53798;51.680;5.976;2022-08-19T05:49:59;101259.13;;;20.43;74.95
66887;BME280;53798;51.680;5.976;2022-08-19T05:52:31;101261.72;;;19.88;76.67
66887;BME280;53798;51.680;5.976;2022-08-19T05:54:59;101258.34;;;19.55;78.01
66887;BME280;53798;51.680;5.976;2022-08-19T05:57:26;101260.78;;;19.30;78.92
66887;BME280;53798;51.680;5.976;2022-08-19T05:59:56;101263.53;;;19.14;79.69
66887;BME280;53798;51.680;5.976;2022-08-19T06:02:26;101265.03;;;19.03;80.15
66887;BME280;53798;51.680;5.976;2022-08-19T06:04:54;101262.63;;;18.99;80.85
66887;BME280;53798;51.680;5.976;2022-08-19T06:07:22;101268.06;;;18.97;81.10
66887;BME280;53798;51.680;5.976;2022-08-19T06:09:49;101276.25;;;18.94;81.61
66887;BME280;53798;51.680;5.976;2022-08-19T06:12:28;101272.72;;;18.93;82.11
66887;BME280;53798;51.680;5.976;2022-08-19T06:15:01;101280.56;;;18.97;82.35
66887;BME280;53798;51.680;5.976;2022-08-19T06:17:41;101286.59;;;19.00;82.42
66887;BME280;53798;51.680;5.976;2022-08-19T06:20:13;101280.78;;;19.08;82.73
66887;BME280;53798;51.680;5.976;2022-08-19T06:22:47;101290.84;;;19.19;82.71
66887;BME280;53798;51.680;5.976;2022-08-19T06:25:18;101287.91;;;19.23;82.48
66887;BME280;53798;51.680;5.976;2022-08-19T06:27:46;101279.59;;;19.28;82.43
66887;BME280;53798;51.680;5.976;2022-08-19T06:30:33;101283.72;;;19.34;81.76
66887;BME280;53798;51.680;5.976;2022-08-19T06:33:00;101286.22;;;19.37;81.55
66887;BME280;53798;51.680;5.976;2022-08-19T06:35:27;101290.50;;;19.39;81.02
66887;BME280;53798;51.680;5.976;2022-08-19T06:37:56;101292.03;;;19.44;80.24
66887;BME280;53798;51.680;5.976;2022-08-19T06:40:23;101287.28;;;19.49;80.01
66887;BME280;53798;51.680;5.976;2022-08-19T06:42:50;101298.75;;;19.51;80.08
66887;BME280;53798;51.680;5.976;2022-08-19T06:45:22;101302.19;;;19.53;78.97
66887;BME280;53798;51.680;5.976;2022-08-19T06:47:52;101296.06;;;19.51;79.38
66887;BME280;53798;51.680;5.976;2022-08-19T06:50:24;101294.69;;;19.44;79.56
66887;BME280;53798;51.680;5.976;2022-08-19T06:52:51;101291.94;;;19.45;79.88
66887;BME280;53798;51.680;5.976;2022-08-19T06:55:20;101298.75;;;19.51;78.96
66887;BME280;53798;51.680;5.976;2022-08-19T06:57:47;101303.88;;;19.54;79.08
66887;BME280;53798;51.680;5.976;2022-08-19T07:00:15;101303.69;;;19.57;79.13
66887;BME280;53798;51.680;5.976;2022-08-19T07:02:43;101302.00;;;19.70;78.97
66887;BME280;53798;51.680;5.976;2022-08-19T07:05:21;101292.53;;;19.79;78.06
66887;BME280;53798;51.680;5.976;2022-08-19T07:07:49;101297.44;;;19.87;78.10
66887;BME280;53798;51.680;5.976;2022-08-19T07:10:17;101300.31;;;19.98;77.65
66887;BME280;53798;51.680;5.976;2022-08-19T07:12:45;101294.78;;;20.01;77.91
66887;BME280;53798;51.680;5.976;2022-08-19T07:15:12;101287.88;;;20.12;76.79
66887;BME280;53798;51.680;5.976;2022-08-19T07:17:39;101292.06;;;20.16;76.08
66887;BME280;53798;51.680;5.976;2022-08-19T07:20:10;101299.78;;;20.21;75.48
66887;BME280;53798;51.680;5.976;2022-08-19T07:22:38;101305.84;;;20.24;75.42
66887;BME280;53798;51.680;5.976;2022-08-19T07:25:07;101301.16;;;20.28;76.29
66887;BME280;53798;51.680;5.976;2022-08-19T07:27:36;101301.31;;;20.39;76.47
66887;BME280;53798;51.680;5.976;2022-08-19T07:30:07;101302.31;;;20.51;75.75
66887;BME280;53798;51.680;5.976;2022-08-19T07:32:39;101303.34;;;20.63;74.81
66887;BME280;53798;51.680;5.976;2022-08-19T07:35:07;101298.31;;;20.71;75.18
66887;BME280;53798;51.680;5.976;2022-08-19T07:37:36;101301.19;;;20.83;74.97
66887;BME280;53798;51.680;5.976;2022-08-19T07:40:06;101307.66;;;20.93;74.54
66887;BME280;53798;51.680;5.976;2022-08-19T07:42:34;101319.69;;;21.00;73.52
66887;BME280;53798;51.680;5.976;2022-08-19T07:45:03;101311.44;;;21.03;72.84
66887;BME280;53798;51.680;5.976;2022-08-19T07:47:32;101311.13;;;21.08;72.73
66887;BME280;53798;51.680;5.976;2022-08-19T07:50:17;101315.78;;;21.19;73.48
66887;BME280;53798;51.680;5.976;2022-08-19T07:52:48;101313.09;;;21.32;73.26
66887;BME280;53798;51.680;5.976;2022-08-19T07:55:19;101315.16;;;21.41;73.17
66887;BME280;53798;51.680;5.976;2022-08-19T07:58:11;101320.63;;;21.52;73.09
66887;BME280;53798;51.680;5.976;2022-08-19T08:00:41;101327.22;;;21.61;72.26
66887;BME280;53798;51.680;5.976;2022-08-19T08:03:10;101330.00;;;21.72;72.15
66887;BME280;53798;51.680;5.976;2022-08-19T08:05:38;101336.22;;;21.86;70.84
66887;BME280;53798;51.680;5.976;2022-08-19T08:08:24;101332.13;;;21.93;70.57
66887;BME280;53798;51.680;5.976;2022-08-19T08:11:16;101339.44;;;22.04;70.55
66887;BME280;53798;51.680;5.976;2022-08-19T08:19:13;101342.56;;;22.11;68.14
66887;BME280;53798;51.680;5.976;2022-08-19T08:21:53;101346.00;;;22.13;69.53
66887;BME280;53798;51.680;5.976;2022-08-19T08:24:23;101346.06;;;22.24;67.87
66887;BME280;53798;51.680;5.976;2022-08-19T08:26:54;101347.69;;;22.27;66.83
66887;BME280;53798;51.680;5.976;2022-08-19T08:29:24;101352.31;;;22.25;67.09
66887;BME280;53798;51.680;5.976;2022-08-19T08:32:01;101351.09;;;22.29;68.27
66887;BME280;53798;51.680;5.976;2022-08-19T08:34:40;101352.47;;;22.34;67.51
66887;BME280;53798;51.680;5.976;2022-08-19T08:37:07;101349.41;;;22.41;67.65
66887;BME280;53798;51.680;5.976;2022-08-19T08:39:34;101361.06;;;22.53;67.02
66887;BME280;53798;51.680;5.976;2022-08-19T08:42:09;101362.31;;;22.60;67.20
66887;BME280;53798;51.680;5.976;2022-08-19T08:44:52;101359.72;;;22.71;66.85
66887;BME280;53798;51.680;5.976;2022-08-19T08:47:29;101362.47;;;22.83;66.72
66887;BME280;53798;51.680;5.976;2022-08-19T08:50:08;101361.78;;;22.92;66.79
66887;BME280;53798;51.680;5.976;2022-08-19T08:52:45;101360.25;;;23.01;66.86
66887;BME280;53798;51.680;5.976;2022-08-19T08:55:25;101351.25;;;23.13;66.26
66887;BME280;53798;51.680;5.976;2022-08-19T08:58:16;101356.84;;;23.34;63.96
66887;BME280;53798;51.680;5.976;2022-08-19T09:00:51;101347.47;;;23.40;64.54
66887;BME280;53798;51.680;5.976;2022-08-19T09:03:21;101355.78;;;23.48;63.99
66887;BME280;53798;51.680;5.976;2022-08-19T09:06:12;101347.75;;;23.60;63.49
66887;BME280;53798;51.680;5.976;2022-08-19T09:08:58;101345.44;;;23.66;62.28
66887;BME280;53798;51.680;5.976;2022-08-19T09:15:03;101342.41;;;23.94;61.59
66887;BME280;53798;51.680;5.976;2022-08-19T09:17:35;101339.25;;;24.11;60.35
66887;BME280;53798;51.680;5.976;2022-08-19T09:20:15;101341.94;;;24.23;59.48
66887;BME280;53798;51.680;5.976;2022-08-19T09:22:46;101338.50;;;24.32;59.36
66887;BME280;53798;51.680;5.976;2022-08-19T09:25:18;101341.19;;;24.32;59.45
66887;BME280;53798;51.680;5.976;2022-08-19T09:27:55;101338.00;;;24.38;57.75
66887;BME280;53798;51.680;5.976;2022-08-19T09:30:39;101337.63;;;24.43;57.15
66887;BME280;53798;51.680;5.976;2022-08-19T09:33:08;101330.88;;;24.48;56.48
66887;BME280;53798;51.680;5.976;2022-08-19T09:35:35;101341.28;;;24.53;55.95
66887;BME280;53798;51.680;5.976;2022-08-19T09:38:20;101339.06;;;24.58;57.02
66887;BME280;53798;51.680;5.976;2022-08-19T09:40:48;101336.00;;;24.63;54.77
66887;BME280;53798;51.680;5.976;2022-08-19T09:43:17;101324.97;;;24.66;55.77
66887;BME280;53798;51.680;5.976;2022-08-19T09:46:00;101328.50;;;24.78;54.04
66887;BME280;53798;51.680;5.976;2022-08-19T09:48:28;101330.44;;;24.87;54.67
66887;BME280;53798;51.680;5.976;2022-08-19T09:51:02;101330.19;;;24.90;53.73
66887;BME280;53798;51.680;5.976;2022-08-19T09:53:38;101340.06;;;25.01;52.60
66887;BME280;53798;51.680;5.976;2022-08-19T09:56:06;101336.59;;;25.10;53.59
66887;BME280;53798;51.680;5.976;2022-08-19T09:58:36;101349.44;;;25.18;53.32
66887;BME280;53798;51.680;5.976;2022-08-19T10:01:05;101342.06;;;25.20;52.08
66887;BME280;53798;51.680;5.976;2022-08-19T10:03:34;101347.56;;;25.19;51.98
66887;BME280;53798;51.680;5.976;2022-08-19T10:06:04;101347.72;;;25.17;52.10
66887;BME280;53798;51.680;5.976;2022-08-19T10:08:43;101348.84;;;25.15;51.97
66887;BME280;53798;51.680;5.976;2022-08-19T10:11:16;101358.84;;;25.03;53.31
66887;BME280;53798;51.680;5.976;2022-08-19T10:14:01;101344.34;;;25.04;53.00
66887;BME280;53798;51.680;5.976;2022-08-19T10:16:30;101343.31;;;25.16;52.58
66887;BME280;53798;51.680;5.976;2022-08-19T10:19:05;101358.53;;;25.38;53.55
66887;BME280;53798;51.680;5.976;2022-08-19T10:21:33;101345.38;;;25.45;53.69
66887;BME280;53798;51.680;5.976;2022-08-19T10:24:04;101355.19;;;25.46;53.55
66887;BME280;53798;51.680;5.976;2022-08-19T10:26:35;101347.19;;;25.23;53.85
66887;BME280;53798;51.680;5.976;2022-08-19T10:29:04;101353.09;;;24.96;54.47
66887;BME280;53798;51.680;5.976;2022-08-19T10:31:35;101351.28;;;24.85;54.87
66887;BME280;53798;51.680;5.976;2022-08-19T10:34:23;101351.88;;;24.89;55.64
66887;BME280;53798;51.680;5.976;2022-08-19T10:36:55;101362.75;;;24.99;55.83
66887;BME280;53798;51.680;5.976;2022-08-19T10:39:29;101375.47;;;24.75;55.00
66887;BME280;53798;51.680;5.976;2022-08-19T10:42:07;101352.41;;;24.71;55.28
66887;BME280;53798;51.680;5.976;2022-08-19T10:44:37;101346.41;;;24.68;55.69
66887;BME280;53798;51.680;5.976;2022-08-19T10:47:05;101363.81;;;24.75;55.38
66887;BME280;53798;51.680;5.976;2022-08-19T10:49:50;101352.03;;;24.64;55.41
66887;BME280;53798;51.680;5.976;2022-08-19T10:52:39;101354.72;;;24.64;55.39
66887;BME280;53798;51.680;5.976;2022-08-19T10:55:23;101343.22;;;24.74;54.60
66887;BME280;53798;51.680;5.976;2022-08-19T10:58:15;101343.69;;;24.79;55.28
66887;BME280;53798;51.680;5.976;2022-08-19T11:00:57;101343.06;;;24.87;53.74
66887;BME280;53798;51.680;5.976;2022-08-19T11:03:26;101336.38;;;24.70;54.52
66887;BME280;53798;51.680;5.976;2022-08-19T11:06:01;101343.06;;;24.87;54.31
66887;BME280;53798;51.680;5.976;2022-08-19T11:08:31;101341.38;;;25.07;53.37
66887;BME280;53798;51.680;5.976;2022-08-19T11:11:01;101340.00;;;25.34;53.43
66887;BME280;53798;51.680;5.976;2022-08-19T11:13:31;101337.09;;;25.58;52.27
66887;BME280;53798;51.680;5.976;2022-08-19T11:16:03;101347.53;;;25.72;52.07
66887;BME280;53798;51.680;5.976;2022-08-19T11:18:38;101349.59;;;25.80;51.11
66887;BME280;53798;51.680;5.976;2022-08-19T11:21:13;101349.50;;;25.92;51.51
66887;BME280;53798;51.680;5.976;2022-08-19T11:23:44;101350.50;;;26.00;51.26
66887;BME280;53798;51.680;5.976;2022-08-19T11:26:13;101362.00;;;26.14;50.32
66887;BME280;53798;51.680;5.976;2022-08-19T11:28:42;101357.47;;;26.24;49.57
66887;BME280;53798;51.680;5.976;2022-08-19T11:31:14;101346.00;;;26.32;48.71
66887;BME280;53798;51.680;5.976;2022-08-19T11:33:44;101336.59;;;26.26;48.74
66887;BME280;53798;51.680;5.976;2022-08-19T11:36:14;101338.88;;;26.31;49.21
66887;BME280;53798;51.680;5.976;2022-08-19T11:38:44;101332.22;;;26.45;49.59
66887;BME280;53798;51.680;5.976;2022-08-19T11:41:11;101332.06;;;26.46;48.84
66887;BME280;53798;51.680;5.976;2022-08-19T11:43:39;101335.31;;;26.30;49.40
66887;BME280;53798;51.680;5.976;2022-08-19T11:46:08;101331.59;;;26.31;49.86
66887;BME280;53798;51.680;5.976;2022-08-19T11:48:38;101333.88;;;26.26;50.13
66887;BME280;53798;51.680;5.976;2022-08-19T11:51:09;101330.78;;;26.00;49.35
66887;BME280;53798;51.680;5.976;2022-08-19T11:53:42;101333.06;;;26.04;50.00
66887;BME280;53798;51.680;5.976;2022-08-19T11:56:09;101333.72;;;26.18;50.13
66887;BME280;53798;51.680;5.976;2022-08-19T11:58:38;101333.00;;;26.16;50.20
66887;BME280;53798;51.680;5.976;2022-08-19T12:01:08;101337.66;;;26.14;50.30
66887;BME280;53798;51.680;5.976;2022-08-19T12:03:38;101342.94;;;26.15;50.22
66887;BME280;53798;51.680;5.976;2022-08-19T12:06:08;101337.09;;;26.10;50.96
66887;BME280;53798;51.680;5.976;2022-08-19T12:08:40;101341.94;;;26.16;50.16
66887;BME280;53798;51.680;5.976;2022-08-19T12:11:09;101332.00;;;26.17;50.58
66887;BME280;53798;51.680;5.976;2022-08-19T12:13:38;101327.91;;;26.23;50.53
66887;BME280;53798;51.680;5.976;2022-08-19T12:16:11;101328.22;;;26.39;50.65
66887;BME280;53798;51.680;5.976;2022-08-19T12:18:41;101339.34;;;26.56;49.89
66887;BME280;53798;51.680;5.976;2022-08-19T12:21:26;101341.78;;;26.59;48.58
66887;BME280;53798;51.680;5.976;2022-08-19T12:23:56;101337.34;;;26.48;48.42
66887;BME280;53798;51.680;5.976;2022-08-19T12:26:26;101330.38;;;26.45;48.91
66887;BME280;53798;51.680;5.976;2022-08-19T12:28:55;101330.84;;;26.60;49.20
66887;BME280;53798;51.680;5.976;2022-08-19T12:31:22;101317.16;;;26.72;48.62
66887;BME280;53798;51.680;5.976;2022-08-19T12:33:49;101321.88;;;26.70;48.62
66887;BME280;53798;51.680;5.976;2022-08-19T12:36:18;101317.31;;;26.70;48.17
66887;BME280;53798;51.680;5.976;2022-08-19T12:38:46;101315.06;;;26.75;48.46
66887;BME280;53798;51.680;5.976;2022-08-19T12:41:15;101322.34;;;26.94;48.64
66887;BME280;53798;51.680;5.976;2022-08-19T12:43:45;101324.47;;;27.10;47.80
66887;BME280;53798;51.680;5.976;2022-08-19T12:46:12;101325.63;;;27.08;47.83
66887;BME280;53798;51.680;5.976;2022-08-19T12:48:42;101321.19;;;27.07;48.33
66887;BME280;53798;51.680;5.976;2022-08-19T12:51:14;101309.78;;;27.23;47.99
66887;BME280;53798;51.680;5.976;2022-08-19T12:53:44;101317.75;;;27.24;48.14
66887;BME280;53798;51.680;5.976;2022-08-19T12:56:13;101310.94;;;27.10;48.53
66887;BME280;53798;51.680;5.976;2022-08-19T12:58:42;101308.53;;;27.17;48.14
66887;BME280;53798;51.680;5.976;2022-08-19T13:01:17;101297.81;;;27.25;48.42
66887;BME280;53798;51.680;5.976;2022-08-19T13:03:48;101297.38;;;27.40;48.18
66887;BME280;53798;51.680;5.976;2022-08-19T13:06:16;101299.94;;;27.41;47.36
66887;BME280;53798;51.680;5.976;2022-08-19T13:08:46;101286.28;;;27.33;47.63
66887;BME280;53798;51.680;5.976;2022-08-19T13:11:15;101293.41;;;27.34;48.09
66887;BME280;53798;51.680;5.976;2022-08-19T13:13:46;101296.00;;;27.26;48.27
66887;BME280;53798;51.680;5.976;2022-08-19T13:16:15;101290.81;;;27.33;47.58
66887;BME280;53798;51.680;5.976;2022-08-19T13:18:45;101296.66;;;27.38;48.12
66887;BME280;53798;51.680;5.976;2022-08-19T13:21:19;101297.66;;;27.37;48.30
66887;BME280;53798;51.680;5.976;2022-08-19T13:23:50;101301.50;;;27.44;47.65